createdAt,value
2018-04-15T00:00:42.500Z,77.00
2018-04-15T00:03:11.393Z,77.50
2018-04-15T00:05:39.705Z,77.60
2018-04-15T00:08:07.248Z,77.60
2018-04-15T00:10:34.900Z,77.40
2018-04-15T00:13:02.861Z,77.20
2018-04-15T00:15:31.415Z,77.40
2018-04-15T00:17:58.966Z,77.40
2018-04-15T00:20:26.479Z,77.80
2018-04-15T00:22:54.035Z,77.70
2018-04-15T00:25:23.039Z,78.50
2018-04-15T00:27:50.590Z,78.50
2018-04-15T00:30:18.115Z,77.80
2018-04-15T00:32:45.666Z,78.10
2018-04-15T00:35:13.195Z,78.10
2018-04-15T00:37:41.172Z,78.00
2018-04-15T00:40:08.708Z,78.00
2018-04-15T00:42:36.225Z,78.50
2018-04-15T00:45:03.847Z,78.60
2018-04-15T00:47:31.376Z,78.20
2018-04-15T00:50:00.959Z,77.20
2018-04-15T00:52:28.470Z,77.10
2018-04-15T00:54:56.274Z,77.20
2018-04-15T00:57:25.821Z,77.00
2018-04-15T00:59:53.440Z,77.60
2018-04-15T01:02:20.992Z,77.80
2018-04-15T01:04:48.638Z,77.80
2018-04-15T01:07:16.283Z,77.20
2018-04-15T01:09:44.055Z,77.30
2018-04-15T01:12:11.580Z,77.10
2018-04-15T01:14:39.881Z,77.00
2018-04-15T01:17:07.546Z,76.90
2018-04-15T01:19:35.108Z,76.40
2018-04-15T01:22:02.701Z,76.50
2018-04-15T01:24:30.291Z,77.40
2018-04-15T01:26:59.304Z,77.00
2018-04-15T01:29:26.847Z,77.00
2018-04-15T01:31:55.136Z,76.70
2018-04-15T01:34:23.428Z,76.80
2018-04-15T01:36:50.956Z,76.70
2018-04-15T01:39:18.483Z,76.50
2018-04-15T01:41:46.008Z,76.10
2018-04-15T01:44:14.343Z,76.00
2018-04-15T01:46:41.884Z,76.30
2018-04-15T01:49:10.045Z,76.00
2018-04-15T01:51:37.573Z,75.70
2018-04-15T01:54:09.827Z,75.30
2018-04-15T01:56:38.133Z,75.70
2018-04-15T01:59:06.155Z,75.70
2018-04-15T02:01:33.683Z,75.60
2018-04-15T02:17:06.342Z,76.40
2018-04-15T02:19:33.872Z,79.50
2018-04-15T02:22:02.201Z,78.00
2018-04-15T02:24:29.723Z,78.00
2018-04-15T02:26:57.296Z,77.60
2018-04-15T02:29:24.832Z,77.20
2018-04-15T02:31:52.364Z,77.00
2018-04-15T02:34:19.889Z,76.70
2018-04-15T02:36:48.292Z,76.10
2018-04-15T02:39:15.845Z,76.20
2018-04-15T02:41:43.379Z,75.90
2018-04-15T02:44:10.912Z,76.50
2018-04-15T02:46:38.432Z,76.50
2018-04-15T02:49:05.978Z,76.50
2018-04-15T02:51:33.633Z,76.60
2018-04-15T02:54:01.246Z,76.60
2018-04-15T02:56:30.222Z,76.50
2018-04-15T02:58:57.737Z,76.40
2018-04-15T03:01:25.273Z,76.90
2018-04-15T03:03:54.184Z,76.40
2018-04-15T03:06:26.129Z,76.30
2018-04-15T03:08:53.970Z,76.60
2018-04-15T03:11:22.262Z,76.80
2018-04-15T03:13:50.544Z,76.90
2018-04-15T03:16:18.118Z,76.90
2018-04-15T03:18:45.657Z,76.80
2018-04-15T03:21:13.967Z,77.00
2018-04-15T03:23:41.518Z,77.10
2018-04-15T03:26:09.041Z,77.40
2018-04-15T03:28:37.353Z,76.80
2018-04-15T03:31:04.914Z,76.80
2018-04-15T03:33:32.477Z,77.50
2018-04-15T03:36:00.023Z,77.00
2018-04-15T03:38:27.567Z,76.90
2018-04-15T03:40:55.871Z,76.80
2018-04-15T03:43:23.393Z,76.60
2018-04-15T03:45:51.801Z,76.50
2018-04-15T03:48:19.336Z,76.50
2018-04-15T03:50:51.616Z,76.30
2018-04-15T03:53:19.896Z,76.30
2018-04-15T03:55:48.206Z,75.90
2018-04-15T03:58:15.726Z,75.80
2018-04-15T04:00:44.025Z,76.60
2018-04-15T04:03:11.551Z,76.60
2018-04-15T04:05:39.903Z,77.00
2018-04-15T04:08:07.520Z,77.00
2018-04-15T04:10:35.098Z,77.30
2018-04-15T04:13:03.495Z,76.90
2018-04-15T04:15:32.935Z,76.70
2018-04-15T04:18:13.390Z,76.90
2018-04-15T04:20:53.216Z,76.90
2018-04-15T04:23:32.691Z,77.00
2018-04-15T04:26:04.823Z,77.60
2018-04-15T04:28:32.349Z,77.60
2018-04-15T04:30:59.875Z,77.80
2018-04-15T04:33:28.229Z,77.60
2018-04-15T04:35:55.795Z,77.50
2018-04-15T04:38:23.339Z,77.70
2018-04-15T04:40:50.865Z,77.50
2018-04-15T04:43:18.396Z,77.20
2018-04-15T04:45:46.713Z,77.40
2018-04-15T04:48:18.129Z,77.30
2018-04-15T04:50:46.437Z,77.10
2018-04-15T04:53:14.008Z,77.10
2018-04-15T04:55:41.568Z,77.40
2018-04-15T04:58:09.105Z,77.00
2018-04-15T05:00:36.766Z,76.90
2018-04-15T05:03:04.308Z,76.80
2018-04-15T05:05:32.616Z,77.00
2018-04-15T05:08:00.192Z,77.00
2018-04-15T05:10:27.746Z,77.40
2018-04-15T05:12:55.291Z,77.40
2018-04-15T05:15:22.804Z,77.60
2018-04-15T05:17:50.327Z,77.80
2018-04-15T05:20:17.866Z,77.80
2018-04-15T05:22:45.409Z,77.70
2018-04-15T05:25:13.696Z,77.70
2018-04-15T05:27:41.976Z,77.70
2018-04-15T05:30:09.505Z,78.70
2018-04-15T05:32:37.802Z,79.90
2018-04-15T05:35:06.126Z,80.40
2018-04-15T05:37:33.758Z,80.40
2018-04-15T05:40:01.261Z,80.80
2018-04-15T05:42:29.620Z,81.60
2018-04-15T05:44:57.224Z,81.60
2018-04-15T05:47:25.520Z,81.00
2018-04-15T05:49:53.052Z,80.80
2018-04-15T05:52:20.587Z,82.30
2018-04-15T05:54:48.998Z,81.80
2018-04-15T05:57:17.298Z,81.70
2018-04-15T05:59:44.837Z,81.60
2018-04-15T06:02:13.160Z,81.80
2018-04-15T06:04:40.691Z,81.60
2018-04-15T06:07:08.251Z,81.50
2018-04-15T06:09:35.792Z,81.30
2018-04-15T06:12:04.077Z,82.00
2018-04-15T06:14:32.375Z,81.80
2018-04-15T06:16:59.907Z,81.80
2018-04-15T06:19:28.217Z,82.50
2018-04-15T06:21:55.753Z,82.50
2018-04-15T06:24:24.163Z,81.60
2018-04-15T06:26:52.262Z,81.70
2018-04-15T06:29:19.800Z,81.60
2018-04-15T06:31:47.341Z,82.00
2018-04-15T06:36:49.590Z,81.30
2018-04-15T06:39:17.073Z,81.30
2018-04-15T06:41:45.365Z,82.00
2018-04-15T06:44:12.879Z,82.10
2018-04-15T06:46:40.571Z,82.40
2018-04-15T06:49:09.530Z,82.10
2018-04-15T06:51:37.058Z,82.10
2018-04-15T06:54:04.576Z,83.00
2018-04-15T06:56:32.896Z,82.60
2018-04-15T06:59:00.490Z,82.60
2018-04-15T07:01:28.899Z,82.50
2018-04-15T07:03:57.205Z,83.10
2018-04-15T07:06:24.727Z,82.90
2018-04-15T07:08:53.043Z,83.20
2018-04-15T07:11:20.572Z,83.10
2018-04-15T07:13:48.876Z,83.40
2018-04-15T07:16:16.437Z,83.30
2018-04-15T07:18:44.262Z,83.50
2018-04-15T07:21:12.594Z,83.50
2018-04-15T07:23:40.115Z,83.50
2018-04-15T07:26:08.439Z,83.50
2018-04-15T07:28:36.608Z,83.50
2018-04-15T07:31:04.240Z,83.50
2018-04-15T07:33:31.801Z,84.00
2018-04-15T07:35:59.392Z,84.20
2018-04-15T07:38:26.946Z,84.30
2018-04-15T07:40:55.032Z,83.70
2018-04-15T07:43:22.553Z,84.40
2018-04-15T07:45:50.085Z,84.90
2018-04-15T07:48:17.684Z,84.90
2018-04-15T07:50:46.365Z,85.20
2018-04-15T07:53:13.900Z,84.70
2018-04-15T07:55:42.215Z,84.80
2018-04-15T07:58:09.760Z,84.80
2018-04-15T08:00:37.285Z,84.70
2018-04-15T08:03:04.826Z,84.30
2018-04-15T08:05:32.439Z,84.90
2018-04-15T08:08:00.006Z,84.70
2018-04-15T08:10:27.759Z,84.50
2018-04-15T08:12:56.068Z,84.10
2018-04-15T08:15:23.732Z,84.10
2018-04-15T08:17:51.268Z,83.60
2018-04-15T08:20:18.996Z,83.50
2018-04-15T08:22:47.283Z,83.20
2018-04-15T08:25:15.617Z,83.30
2018-04-15T08:27:43.119Z,83.20
2018-04-15T08:30:11.980Z,83.10
2018-04-15T08:32:39.511Z,83.00
2018-04-15T08:35:07.035Z,83.90
2018-04-15T08:37:35.340Z,83.60
2018-04-15T08:40:02.874Z,83.60
2018-04-15T08:42:31.166Z,84.50
2018-04-15T08:44:58.698Z,84.50
2018-04-15T08:47:26.996Z,85.40
2018-04-15T08:49:54.918Z,84.90
2018-04-15T08:52:22.592Z,85.20
2018-04-15T08:54:50.127Z,83.30
2018-04-15T08:57:17.777Z,84.60
2018-04-15T08:59:45.992Z,84.40
2018-04-15T09:02:13.521Z,85.40
2018-04-15T09:04:41.068Z,85.90
2018-04-15T09:07:09.186Z,86.00
2018-04-15T09:09:36.740Z,86.70
2018-04-15T09:12:04.305Z,87.90
2018-04-15T09:14:31.901Z,88.00
2018-04-15T09:16:59.444Z,88.20
2018-04-15T09:19:27.765Z,85.40
2018-04-15T09:21:55.309Z,85.30
2018-04-15T09:24:22.844Z,83.60
2018-04-15T09:26:51.145Z,83.20
2018-04-15T09:29:18.678Z,82.50
2018-04-15T09:31:47.000Z,82.80
2018-04-15T09:34:15.492Z,82.70
2018-04-15T09:36:43.150Z,83.40
2018-04-15T09:39:10.698Z,82.40
2018-04-15T09:41:38.376Z,82.30
2018-04-15T09:44:05.909Z,79.80
2018-04-15T09:46:34.335Z,79.90
2018-04-15T09:49:02.009Z,79.10
2018-04-15T09:51:29.616Z,79.60
2018-04-15T09:53:57.213Z,80.50
2018-04-15T09:56:24.830Z,78.60
2018-04-15T09:58:52.379Z,77.80
2018-04-15T10:01:19.918Z,78.00
2018-04-15T10:03:48.235Z,79.40
2018-04-15T10:06:15.771Z,79.40
2018-04-15T10:08:44.080Z,79.50
2018-04-15T10:11:12.379Z,78.60
2018-04-15T10:13:39.905Z,78.60
2018-04-15T10:16:07.512Z,80.40
2018-04-15T10:18:35.062Z,79.20
2018-04-15T10:21:03.153Z,79.20
2018-04-15T10:23:30.723Z,79.30
2018-04-15T10:25:59.008Z,80.90
2018-04-15T10:28:27.380Z,80.30
2018-04-15T10:30:55.740Z,79.60
2018-04-15T10:33:23.285Z,79.60
2018-04-15T10:35:50.853Z,80.30
2018-04-15T10:38:18.964Z,79.70
2018-04-15T10:40:47.323Z,80.40
2018-04-15T10:43:14.887Z,80.40
2018-04-15T10:45:43.256Z,80.00
2018-04-15T10:48:10.817Z,79.90
2018-04-15T10:50:38.338Z,78.80
2018-04-15T10:53:05.897Z,78.90
2018-04-15T10:55:33.888Z,79.80
2018-04-15T10:58:01.441Z,80.50
2018-04-15T11:00:28.995Z,79.90
2018-04-15T11:02:56.549Z,79.70
2018-04-15T11:05:24.096Z,80.50
2018-04-15T11:07:51.671Z,79.80
2018-04-15T11:10:19.947Z,80.30
2018-04-15T11:12:48.049Z,79.40
2018-04-15T11:15:15.613Z,79.80
2018-04-15T11:17:43.143Z,80.70
2018-04-15T11:20:11.246Z,80.00
2018-04-15T11:22:38.772Z,78.70
2018-04-15T11:25:06.333Z,79.50
2018-04-15T11:27:33.851Z,79.40
2018-04-15T11:30:02.174Z,77.70
2018-04-15T11:32:29.751Z,77.70
2018-04-15T11:34:57.259Z,79.40
2018-04-15T11:37:24.826Z,79.60
2018-04-15T11:39:52.371Z,77.70
2018-04-15T11:42:20.694Z,76.60
2018-04-15T11:44:48.218Z,76.50
2018-04-15T11:47:15.780Z,76.80
2018-04-15T11:49:43.997Z,75.10
2018-04-15T11:52:11.580Z,74.70
2018-04-15T11:54:39.135Z,75.80
2018-04-15T11:57:06.689Z,73.00
2018-04-15T11:59:34.527Z,70.40
2018-04-15T12:02:02.065Z,68.70
2018-04-15T12:04:29.605Z,63.80
2018-04-15T12:06:57.935Z,60.40
2018-04-15T12:09:25.478Z,60.30
2018-04-15T12:11:53.428Z,62.30
2018-04-15T12:14:20.999Z,64.00
2018-04-15T12:16:48.537Z,62.20
2018-04-15T12:19:16.847Z,64.90
2018-04-15T12:21:44.395Z,64.80
2018-04-15T12:24:11.921Z,64.40
2018-04-15T12:26:40.267Z,63.60
2018-04-15T12:29:07.819Z,63.60
2018-04-15T12:31:35.360Z,63.00
2018-04-15T12:34:02.886Z,64.10
2018-04-15T12:36:31.187Z,62.00
2018-04-15T12:38:59.353Z,62.00
2018-04-15T12:41:26.875Z,60.50
2018-04-15T12:43:54.425Z,56.50
2018-04-15T12:46:21.964Z,55.80
2018-04-15T12:48:49.518Z,55.40
2018-04-15T12:51:17.050Z,55.20
2018-04-15T12:53:44.585Z,57.40
2018-04-15T12:56:12.892Z,57.20
2018-04-15T12:58:40.446Z,57.10
2018-04-15T13:01:07.986Z,53.90
2018-04-15T13:03:36.280Z,53.30
2018-04-15T13:19:03.864Z,53.30
2018-04-15T13:21:32.157Z,55.60
2018-04-15T13:23:59.691Z,53.10
2018-04-15T13:26:27.253Z,50.70
2018-04-15T13:28:54.808Z,53.30
2018-04-15T13:31:22.369Z,51.60
2018-04-15T13:33:50.839Z,52.70
2018-04-15T13:36:18.420Z,51.50
2018-04-15T13:38:45.946Z,49.00
2018-04-15T13:41:14.235Z,49.20
2018-04-15T13:43:41.769Z,49.20
2018-04-15T13:46:10.059Z,45.90
2018-04-15T13:48:38.383Z,45.70
2018-04-15T13:51:05.923Z,45.70
2018-04-15T13:53:33.460Z,44.40
2018-04-15T13:56:01.014Z,46.20
2018-04-15T13:58:29.383Z,44.80
2018-04-15T14:00:57.752Z,43.60
2018-04-15T14:03:25.305Z,43.60
2018-04-15T14:05:53.399Z,42.50
2018-04-15T14:08:21.679Z,39.50
2018-04-15T14:10:49.973Z,40.90
2018-04-15T14:13:17.511Z,40.80
2018-04-15T14:15:45.828Z,36.60
2018-04-15T14:18:14.027Z,36.40
2018-04-15T14:20:41.563Z,35.20
2018-04-15T14:23:10.028Z,33.70
2018-04-15T14:25:38.521Z,33.80
2018-04-15T14:28:06.203Z,35.10
2018-04-15T14:30:33.748Z,38.50
2018-04-15T14:33:01.353Z,36.20
2018-04-15T14:35:28.929Z,36.90
2018-04-15T14:37:57.228Z,36.90
2018-04-15T14:40:24.808Z,36.80
2018-04-15T14:42:52.366Z,37.20
2018-04-15T14:45:19.939Z,37.10
2018-04-15T14:47:47.473Z,37.50
2018-04-15T14:50:15.031Z,40.20
2018-04-15T14:52:42.550Z,41.70
2018-04-15T14:55:10.085Z,42.50
2018-04-15T14:57:37.631Z,42.60
2018-04-15T15:00:51.067Z,43.20
2018-04-15T15:03:18.606Z,43.10
2018-04-15T15:05:46.144Z,45.90
2018-04-15T15:08:14.485Z,49.20
2018-04-15T15:10:42.024Z,49.10
2018-04-15T15:13:09.544Z,51.10
2018-04-15T15:15:37.853Z,51.60
2018-04-15T15:18:05.376Z,51.60
2018-04-15T15:20:33.710Z,53.60
2018-04-15T15:23:01.249Z,53.50
2018-04-15T15:25:29.539Z,53.10
2018-04-15T15:28:00.972Z,54.30
2018-04-15T15:30:28.551Z,54.60
2018-04-15T15:32:56.367Z,55.50
2018-04-15T15:35:24.659Z,57.00
2018-04-15T15:37:52.223Z,56.90
2018-04-15T15:40:19.768Z,57.40
2018-04-15T15:42:48.072Z,58.70
2018-04-15T15:45:15.607Z,58.70
2018-04-15T15:47:43.911Z,59.30
2018-04-15T15:50:11.477Z,59.10
2018-04-15T15:52:39.622Z,60.40
2018-04-15T15:55:07.934Z,60.90
2018-04-15T15:57:35.512Z,60.90
2018-04-15T16:00:03.056Z,60.50
2018-04-15T16:02:30.597Z,60.70
2018-04-15T16:04:58.143Z,59.40
2018-04-15T16:07:26.465Z,59.90
2018-04-15T16:09:54.660Z,59.90
2018-04-15T16:12:22.192Z,60.10
2018-04-15T16:14:49.719Z,61.10
2018-04-15T16:17:17.249Z,61.10
2018-04-15T16:19:44.799Z,61.10
2018-04-15T16:22:12.377Z,60.90
2018-04-15T16:24:40.684Z,60.70
2018-04-15T16:27:08.267Z,60.60
2018-04-15T16:29:40.000Z,61.50
2018-04-15T16:32:07.529Z,61.60
2018-04-15T16:34:35.060Z,62.90
2018-04-15T16:37:02.606Z,62.80
2018-04-15T16:39:30.224Z,62.90
2018-04-15T16:41:58.518Z,64.40
2018-04-15T16:44:27.598Z,64.40
2018-04-15T16:46:55.912Z,63.60
2018-04-15T16:49:23.554Z,63.60
2018-04-15T16:51:51.776Z,63.20
2018-04-15T16:54:19.382Z,65.30
2018-04-15T16:56:46.963Z,63.40
2018-04-15T16:59:14.505Z,65.70
2018-04-15T17:01:42.018Z,65.30
2018-04-15T17:04:10.159Z,65.50
2018-04-15T17:06:37.695Z,65.30
2018-04-15T17:09:05.220Z,66.30
2018-04-15T17:11:32.798Z,66.40
2018-04-15T17:14:01.801Z,65.40
2018-04-15T17:16:30.128Z,65.90
2018-04-15T17:18:58.666Z,65.90
2018-04-15T17:21:27.229Z,67.60
2018-04-15T17:23:55.557Z,67.80
2018-04-15T17:26:23.959Z,67.80
2018-04-15T17:28:51.598Z,66.90
2018-04-15T17:31:19.159Z,68.50
2018-04-15T17:33:46.709Z,68.40
2018-04-15T17:36:14.322Z,68.50
2018-04-15T17:38:42.062Z,68.70
2018-04-15T17:41:09.602Z,68.30
2018-04-15T17:43:37.242Z,67.60
2018-04-15T17:46:04.829Z,69.10
2018-04-15T17:48:32.435Z,69.90
2018-04-15T17:50:59.989Z,70.40
2018-04-15T17:53:27.559Z,69.90
2018-04-15T17:55:55.866Z,70.50
2018-04-15T17:58:27.545Z,70.50
2018-04-15T18:00:55.100Z,70.20
2018-04-15T18:03:22.624Z,70.50
2018-04-15T18:05:50.945Z,71.20
2018-04-15T18:08:18.541Z,71.20
2018-04-15T18:10:46.114Z,71.50
2018-04-15T18:13:14.417Z,71.70
2018-04-15T18:15:42.672Z,72.40
2018-04-15T18:18:10.980Z,72.70
2018-04-15T18:20:38.527Z,72.70
2018-04-15T18:23:06.055Z,73.00
2018-04-15T18:25:33.585Z,73.10
2018-04-15T18:28:02.425Z,73.70
2018-04-15T18:30:30.096Z,73.40
2018-04-15T18:32:58.400Z,73.40
2018-04-15T18:35:26.845Z,73.30
2018-04-15T18:37:54.449Z,73.50
2018-04-15T18:40:22.127Z,73.70
2018-04-15T18:42:49.684Z,73.60
2018-04-15T18:45:17.331Z,73.70
2018-04-15T18:47:44.857Z,74.30
2018-04-15T18:50:13.223Z,75.00
2018-04-15T18:52:40.722Z,74.90
2018-04-15T18:55:08.597Z,75.30
2018-04-15T19:09:09.013Z,76.00
2018-04-15T19:11:36.561Z,76.60
2018-04-15T19:14:04.101Z,76.40
2018-04-15T19:16:32.189Z,76.30
2018-04-15T19:18:59.711Z,76.40
2018-04-15T19:21:28.518Z,77.10
2018-04-15T19:23:56.104Z,77.10
2018-04-15T19:26:23.662Z,76.40
2018-04-15T19:28:51.183Z,76.60
2018-04-15T19:31:19.522Z,77.00
2018-04-15T19:33:47.643Z,76.90
2018-04-15T19:36:15.491Z,76.20
2018-04-15T19:38:43.796Z,76.90
2018-04-15T19:41:11.371Z,76.80
2018-04-15T19:43:39.706Z,77.20
2018-04-15T19:46:07.993Z,77.70
2018-04-15T19:48:36.310Z,77.70
2018-04-15T19:51:03.867Z,77.60
2018-04-15T19:53:31.412Z,77.80
2018-04-15T19:55:58.953Z,77.30
2018-04-15T19:58:27.294Z,77.50
2018-04-15T20:00:54.853Z,77.50
2018-04-15T20:03:23.338Z,77.80
2018-04-15T20:05:50.936Z,78.00
2018-04-15T20:08:19.236Z,77.90
2018-04-15T20:10:46.781Z,77.90
2018-04-15T20:13:14.359Z,78.50
2018-04-15T20:15:41.895Z,78.60
2018-04-15T20:18:10.243Z,78.90
2018-04-15T20:20:37.801Z,78.80
2018-04-15T20:23:05.341Z,78.90
2018-04-15T20:25:32.981Z,79.20
2018-04-15T20:28:00.519Z,80.50
2018-04-15T20:30:28.057Z,79.60
2018-04-15T20:32:57.234Z,79.70
2018-04-15T20:35:24.876Z,79.60
2018-04-15T20:37:52.418Z,79.80
2018-04-15T20:40:19.979Z,79.40
2018-04-15T20:42:47.533Z,79.10
2018-04-15T20:45:15.072Z,79.20
2018-04-15T20:47:43.484Z,79.30
2018-04-15T20:50:11.021Z,79.30
2018-04-15T20:52:38.557Z,79.30
2018-04-15T20:55:10.895Z,80.80
2018-04-15T20:57:39.217Z,80.80
2018-04-15T21:00:07.541Z,81.00
2018-04-15T21:02:36.106Z,81.00
2018-04-15T21:05:03.648Z,80.90
2018-04-15T21:07:31.180Z,81.20
2018-04-15T21:09:58.699Z,81.80
2018-04-15T21:12:26.279Z,82.00
2018-04-15T21:14:54.619Z,81.60
2018-04-15T21:17:22.180Z,81.20
2018-04-15T21:19:49.699Z,81.00
2018-04-15T21:22:18.036Z,81.50
2018-04-15T21:24:45.582Z,81.40
2018-04-15T21:27:13.187Z,81.60
2018-04-15T21:29:41.470Z,81.80
2018-04-15T21:32:09.006Z,82.00
2018-04-15T21:34:36.552Z,81.80
2018-04-15T21:37:04.074Z,81.70
2018-04-15T21:39:32.407Z,81.30
2018-04-15T21:41:59.935Z,81.30
2018-04-15T21:44:27.478Z,81.50
2018-04-15T21:46:55.055Z,81.30
2018-04-15T21:49:22.596Z,80.80
2018-04-15T21:51:50.135Z,80.40
2018-04-15T21:54:18.897Z,81.00
2018-04-15T21:56:46.417Z,80.90
2018-04-15T21:59:13.946Z,80.90
2018-04-15T22:01:42.863Z,80.70
2018-04-15T22:04:10.388Z,80.70
2018-04-15T22:06:37.912Z,80.80
2018-04-15T22:09:06.259Z,80.80
2018-04-15T22:11:45.575Z,80.50
2018-04-15T22:14:14.312Z,81.10
2018-04-15T22:16:42.637Z,81.50
2018-04-15T22:19:10.952Z,81.80
2018-04-15T22:21:38.480Z,81.70
2018-04-15T22:24:06.791Z,81.80
2018-04-15T22:26:34.523Z,81.70
2018-04-15T22:29:02.805Z,81.50
2018-04-15T22:31:31.115Z,81.40
2018-04-15T22:33:58.706Z,81.40
2018-04-15T22:36:26.223Z,81.40
2018-04-15T22:38:53.874Z,81.10
2018-04-15T22:41:21.388Z,81.10
2018-04-15T22:43:48.950Z,81.40
2018-04-15T22:46:16.476Z,81.70
2018-04-15T22:48:45.810Z,81.60
2018-04-15T22:51:14.570Z,81.90
2018-04-15T22:53:42.132Z,82.10
2018-04-15T22:56:09.874Z,82.40
2018-04-15T22:58:43.077Z,82.50
2018-04-15T23:01:10.603Z,82.80
2018-04-15T23:03:38.896Z,82.80
2018-04-15T23:06:06.428Z,82.70
2018-04-15T23:08:34.741Z,82.40
2018-04-15T23:11:05.938Z,82.40
2018-04-15T23:13:34.407Z,82.10
2018-04-15T23:16:02.522Z,82.00
2018-04-15T23:18:30.866Z,82.60
2018-04-15T23:20:58.424Z,82.60
2018-04-15T23:23:26.032Z,82.90
2018-04-15T23:25:53.681Z,83.10
2018-04-15T23:28:21.995Z,83.40
2018-04-15T23:30:49.737Z,83.40
2018-04-15T23:33:17.391Z,83.50
2018-04-15T23:35:45.005Z,83.50
2018-04-15T23:38:12.613Z,83.50
2018-04-15T23:40:40.177Z,83.60
2018-04-15T23:43:07.752Z,83.90
2018-04-15T23:45:35.356Z,84.00
2018-04-15T23:48:02.893Z,83.70
2018-04-15T23:50:30.415Z,83.70
2018-04-15T23:52:57.937Z,83.40
2018-04-15T23:55:25.689Z,83.40
2018-04-15T23:57:53.208Z,83.30
